Terminal Aerodrome Forecast
Issued by NWS New Orleans/Baton Rouge, LA

Home | Current Version | Previous Version | Text Only | Print | Product List | Glossary On
Versions: 1 2 3 4 5 6 7 8 9 10 11 12 13 14 15 16 17 18 19 20 21 22 23 24 25 26
000
FTUS44 KLIX 261100 RRA
TAFNEW
TAF
KNEW 261140Z 2612/2712 13006KT P6SM BKN200
     FM261600 09007KT P6SM BKN027
     FM270000 10013KT P6SM VCSH OVC025
     FM270400 09011KT 4SM SHRA OVC015
     FM271000 10010KT 4SM SHRA OVC008=

USA.gov is the U.S. government's official web portal to all federal, state and local government web resources and services.